Time;durP1;ratioP1;P1;durP2;ratioP2;P2;SDS_P1;SDS_P2;PMS_P1;PMS_P2;Temp;Humidity;BMP_temperature;BMP_pressure;BME280_temperature;BME280_humidity;BME280_pressure;Samples;Min_cycle;Max_cycle;Signal;HPM_P1;HPM_P2
2023/11/27 00:01:04;;;;;;;;;;;;;;;8.41;100.00;99300.28;6274344;22;19969;-81
2023/11/27 00:03:29;;;;;;;;;;;;;;;8.41;100.00;99296.75;6274410;22;19911;-81
2023/11/27 00:05:54;;;;;;;;;;;;;;;8.42;100.00;99294.06;6274483;22;19986;-80
2023/11/27 00:08:19;;;;;;;;;;;;;;;8.43;100.00;99301.09;6274431;22;19926;-81
2023/11/27 00:10:45;;;;;;;;;;;;;;;8.46;100.00;99300.13;6274256;22;20334;-81
2023/11/27 00:13:10;;;;;;;;;;;;;;;8.45;100.00;99296.59;6274598;22;19916;-81
2023/11/27 00:15:35;;;;;;;;;;;;;;;8.47;100.00;99285.97;6276391;22;19976;-81
2023/11/27 00:18:00;;;;;;;;;;;;;;;8.48;100.00;99288.56;6276254;22;19918;-81
2023/11/27 00:20:26;;;;;;;;;;;;;;;8.47;100.00;99284.22;6276045;22;19911;-81
2023/11/27 00:22:51;;;;;;;;;;;;;;;8.49;100.00;99279.72;6276317;22;20278;-81
2023/11/27 00:25:16;;;;;;;;;;;;;;;8.49;100.00;99274.44;6276248;22;19911;-81
2023/11/27 00:27:42;;;;;;;;;;;;;;;8.51;100.00;99280.50;6275168;22;19918;-82
2023/11/27 00:30:07;;;;;;;;;;;;;;;8.51;100.00;99269.09;6276119;22;19911;-81
2023/11/27 00:32:33;;;;;;;;;;;;;;;8.53;100.00;99257.53;6276282;22;19911;-81
2023/11/27 00:34:58;;;;;;;;;;;;;;;8.54;100.00;99256.63;6276045;22;19969;-81
2023/11/27 00:37:24;;;;;;;;;;;;;;;8.52;100.00;99250.56;6276150;22;19912;-81
2023/11/27 00:39:50;;;;;;;;;;;;;;;8.54;100.00;99248.69;6276278;22;19969;-81
2023/11/27 00:42:16;;;;;;;;;;;;;;;8.53;100.00;99246.13;6276416;22;19916;-82
2023/11/27 00:44:41;;;;;;;;;;;;;;;8.53;100.00;99254.03;6274703;22;19911;-81
2023/11/27 00:47:06;;;;;;;;;;;;;;;8.54;100.00;99248.69;6248904;22;20243;-81
2023/11/27 00:49:31;;;;;;;;;;;;;;;8.53;100.00;99246.13;6275746;22;19918;-81
2023/11/27 00:51:57;;;;;;;;;;;;;;;8.57;100.00;99244.19;6276146;22;19948;-81
2023/11/27 00:54:23;;;;;;;;;;;;;;;8.57;100.00;99238.91;6275787;22;19961;-81
2023/11/27 00:56:48;;;;;;;;;;;;;;;8.57;100.00;99237.16;6276001;22;19921;-80
2023/11/27 00:59:13;;;;;;;;;;;;;;;8.58;100.00;99240.66;6274426;22;19961;-81
2023/11/27 01:01:39;;;;;;;;;;;;;;;8.58;100.00;99232.72;6275899;22;19916;-80
2023/11/27 01:04:04;;;;;;;;;;;;;;;8.58;100.00;99227.44;6275669;22;19918;-81
2023/11/27 01:06:29;;;;;;;;;;;;;;;8.57;100.00;99229.25;6276082;22;20394;-81
2023/11/27 08:57:41;;;;;;;;;;;;;;;10.01;100.00;98604.16;6272643;22;20246;-86
2023/11/27 09:00:10;;;;;;;;;;;;;;;10.27;100.00;98589.34;6276807;22;19915;-90
2023/11/27 09:02:38;;;;;;;;;;;;;;;10.00;100.00;98595.38;6250102;22;19946;-91
2023/11/27 09:05:04;;;;;;;;;;;;;;;9.98;100.00;98594.59;6276586;22;20326;-84
2023/11/27 09:07:30;;;;;;;;;;;;;;;10.82;100.00;98584.31;6277266;22;19915;-85
2023/11/27 09:09:55;;;;;;;;;;;;;;;10.48;100.00;98581.97;6275292;22;19911;-91
2023/11/27 09:12:20;;;;;;;;;;;;;;;11.13;100.00;98580.53;6277239;22;19912;-95
2023/11/27 09:14:51;;;;;;;;;;;;;;;11.13;100.00;98585.00;6277583;22;19922;-94
2023/11/27 09:17:19;;;;;;;;;;;;;;;12.73;100.00;98566.25;6277667;22;20323;-92
2023/11/27 09:19:45;;;;;;;;;;;;;;;15.79;100.00;98549.84;6250446;22;19915;-92
2023/11/27 09:22:11;;;;;;;;;;;;;;;14.26;100.00;98549.69;6277014;22;19911;-88
2023/11/27 09:24:39;;;;;;;;;;;;;;;13.70;100.00;98540.59;6277480;22;19998;-90
2023/11/27 09:27:04;;;;;;;;;;;;;;;13.23;100.00;98540.50;6277162;22;19998;-90
2023/11/27 09:29:30;;;;;;;;;;;;;;;13.06;100.00;98544.38;6277256;22;19946;-89
2023/11/27 09:31:55;;;;;;;;;;;;;;;13.09;100.00;98535.34;6277416;22;20334;-91
2023/11/27 09:34:23;;;;;;;;;;;;;;;13.08;100.00;98523.88;6277174;22;20013;-92
2023/11/27 09:36:48;;;;;;;;;;;;;;;15.35;100.00;98514.34;6277136;22;19919;-86
2023/11/27 09:39:14;;;;;;;;;;;;;;;12.20;100.00;98521.25;6276262;22;19919;-82
2023/11/27 09:41:48;;;;;;;;;;;;;;;9.49;100.00;98528.72;6277855;22;19962;-90
2023/11/27 09:44:13;;;;;;;;;;;;;;;8.88;100.00;98533.91;6249139;22;19912;-86
2023/11/27 09:46:42;;;;;;;;;;;;;;;9.11;100.00;98523.88;6277059;22;20429;-85
2023/11/27 09:49:10;;;;;;;;;;;;;;;11.55;100.00;98511.50;6276435;22;20342;-85
2023/11/27 09:51:35;;;;;;;;;;;;;;;10.63;100.00;98505.97;6249335;22;20037;-84
2023/11/27 09:54:02;;;;;;;;;;;;;;;10.86;100.00;98499.19;6275209;22;19942;-84
2023/11/27 09:56:28;;;;;;;;;;;;;;;8.71;100.00;98508.47;6276169;22;20001;-84
2023/11/27 09:58:59;;;;;;;;;;;;;;;8.96;100.00;98500.94;6276598;22;19938;-84
2023/11/27 10:01:27;;;;;;;;;;;;;;;13.69;100.00;98463.53;6276483;22;19911;-85
2023/11/27 10:03:57;;;;;;;;;;;;;;;9.37;100.00;98473.94;6276516;22;19950;-83
2023/11/27 10:06:24;;;;;;;;;;;;;;;8.19;100.00;98483.09;6276209;22;19966;-86
2023/11/27 10:09:00;;;;;;;;;;;;;;;7.74;100.00;98470.56;6275058;22;20392;-89
2023/11/27 10:11:25;;;;;;;;;;;;;;;7.44;100.00;98469.41;6276387;22;19911;-84
2023/11/27 10:13:50;;;;;;;;;;;;;;;7.22;100.00;98458.25;6276097;22;19915;-84
2023/11/27 10:16:18;;;;;;;;;;;;;;;7.05;100.00;98462.59;6276274;22;20323;-87
2023/11/27 10:18:44;;;;;;;;;;;;;;;6.81;100.00;98461.16;6276158;22;19911;-85
2023/11/27 10:21:15;;;;;;;;;;;;;;;6.65;100.00;98456.66;6275472;22;19990;-86
2023/11/27 10:23:41;;;;;;;;;;;;;;;6.53;100.00;98442.28;6276084;22;19911;-86
2023/11/27 10:26:06;;;;;;;;;;;;;;;6.36;100.00;98450.97;6247277;22;20377;-87
2023/11/27 10:28:45;;;;;;;;;;;;;;;6.24;100.00;98441.03;6276805;22;19915;-91
2023/11/27 10:31:11;;;;;;;;;;;;;;;6.18;100.00;98436.06;6249426;22;19990;-86
2023/11/27 10:33:37;;;;;;;;;;;;;;;6.12;100.00;98423.19;6276811;22;19915;-82
2023/11/27 10:36:02;;;;;;;;;;;;;;;6.08;100.00;98419.84;6275837;22;20246;-91
2023/11/27 10:38:28;;;;;;;;;;;;;;;6.17;100.00;98421.19;6275968;22;19915;-86
2023/11/27 10:40:55;;;;;;;;;;;;;;;6.11;100.00;98414.44;6275245;22;19946;-89
2023/11/27 10:43:22;;;;;;;;;;;;;;;6.17;100.00;98397.50;6249292;22;19969;-90
2023/11/27 10:45:49;;;;;;;;;;;;;;;6.02;100.00;98401.72;6275905;22;19911;-86
2023/11/27 10:48:14;;;;;;;;;;;;;;;6.02;100.00;98393.84;6276785;22;19942;-92
2023/11/27 10:50:45;;;;;;;;;;;;;;;6.04;100.00;98383.25;6278264;22;20230;-86
2023/11/27 10:53:11;;;;;;;;;;;;;;;6.07;100.00;98377.84;6249898;22;20472;-91
2023/11/27 10:55:38;;;;;;;;;;;;;;;6.07;100.00;98380.47;6276820;22;19911;-93
2023/11/27 10:58:05;;;;;;;;;;;;;;;6.17;100.00;98379.09;6276958;22;19915;-94
2023/11/27 11:00:38;;;;;;;;;;;;;;;6.23;100.00;98376.19;6278519;22;19911;-85
2023/11/27 11:03:09;;;;;;;;;;;;;;;6.21;100.00;98362.25;6276514;22;20231;-90
2023/11/27 11:05:37;;;;;;;;;;;;;;;6.16;100.00;98356.38;6248890;22;19919;-91
2023/11/27 11:08:03;;;;;;;;;;;;;;;6.16;100.00;98351.97;6275933;22;19912;-88
2023/11/27 11:10:31;;;;;;;;;;;;;;;6.09;100.00;98341.78;6274680;22;19915;-91
2023/11/27 11:12:57;;;;;;;;;;;;;;;6.08;100.00;98337.44;6250126;22;19918;-84
2023/11/27 11:15:40;;;;;;;;;;;;;;;6.12;100.00;98328.50;6250421;22;19915;-84
2023/11/27 11:18:11;;;;;;;;;;;;;;;6.08;100.00;98321.69;6249648;22;19990;-84
2023/11/27 11:20:41;;;;;;;;;;;;;;;6.09;100.00;98315.50;6276123;22;20235;-85
2023/11/27 11:23:29;;;;;;;;;;;;;;;6.06;100.00;98313.00;6249525;22;20232;-94
2023/11/27 11:26:21;;;;;;;;;;;;;;;6.07;100.00;98298.94;6274379;22;19918;-92
2023/11/27 11:28:49;;;;;;;;;;;;;;;6.11;100.00;98297.88;6277066;22;19946;-91
2023/11/27 11:31:18;;;;;;;;;;;;;;;6.06;100.00;98284.09;6248472;22;20329;-88
2023/11/27 11:33:44;;;;;;;;;;;;;;;6.02;100.00;98275.50;6275745;22;19917;-88
2023/11/27 11:36:13;;;;;;;;;;;;;;;5.97;100.00;98275.72;6249110;22;19946;-88
2023/11/27 11:38:44;;;;;;;;;;;;;;;5.99;100.00;98263.34;6275662;22;19919;-82
2023/11/27 11:41:09;;;;;;;;;;;;;;;6.12;100.00;98262.75;6274125;22;20379;-88
2023/11/27 11:43:41;;;;;;;;;;;;;;;6.08;100.00;98250.66;6248577;22;19958;-90
2023/11/27 11:46:14;;;;;;;;;;;;;;;6.00;100.00;98236.13;6248940;22;19939;-87
2023/11/27 11:48:40;;;;;;;;;;;;;;;5.98;100.00;98230.13;6248795;22;19915;-85
2023/11/27 11:51:15;;;;;;;;;;;;;;;5.95;100.00;98226.72;6275702;22;20474;-84
2023/11/27 11:53:42;;;;;;;;;;;;;;;5.93;100.00;98224.16;6248633;22;19933;-86
2023/11/27 11:56:22;;;;;;;;;;;;;;;5.88;100.00;98215.66;6246818;22;20235;-86
2023/11/27 11:58:56;;;;;;;;;;;;;;;5.89;100.00;98212.13;6248497;22;19911;-86
2023/11/27 12:01:23;;;;;;;;;;;;;;;5.89;100.00;98212.13;6276268;22;19965;-90
2023/11/27 12:03:50;;;;;;;;;;;;;;;5.87;100.00;98199.97;6275969;22;20254;-89
2023/11/27 12:06:15;;;;;;;;;;;;;;;5.85;100.00;98197.41;6249530;22;19990;-83
2023/11/27 12:08:45;;;;;;;;;;;;;;;5.81;100.00;98195.88;6249661;22;19943;-82
2023/11/27 12:11:11;;;;;;;;;;;;;;;5.85;100.00;98184.28;6249306;22;19946;-82
2023/11/27 12:13:36;;;;;;;;;;;;;;;5.87;100.00;98174.56;6250312;22;19919;-81
2023/11/27 12:16:11;;;;;;;;;;;;;;;5.88;100.00;98173.59;6249990;22;19911;-85
2023/11/27 12:18:37;;;;;;;;;;;;;;;5.88;100.00;98165.72;6250049;22;19915;-86
2023/11/27 12:21:05;;;;;;;;;;;;;;;5.91;100.00;98164.72;6250551;22;19957;-86
2023/11/27 12:23:36;;;;;;;;;;;;;;;5.89;100.00;98156.03;6277067;22;19915;-88
2023/11/27 12:26:06;;;;;;;;;;;;;;;5.87;100.00;98156.16;6249376;22;19990;-87
2023/11/27 12:28:34;;;;;;;;;;;;;;;5.90;100.00;98145.44;6277112;22;20312;-84
2023/11/27 12:31:00;;;;;;;;;;;;;;;5.91;100.00;98139.28;6276401;22;20243;-86
2023/11/27 12:33:27;;;;;;;;;;;;;;;5.92;100.00;98138.38;6277025;22;19912;-84
2023/11/27 12:35:52;;;;;;;;;;;;;;;5.91;100.00;98135.81;6250303;22;19934;-88
2023/11/27 12:38:18;;;;;;;;;;;;;;;5.90;100.00;98137.56;6277171;22;20346;-85
2023/11/27 12:40:47;;;;;;;;;;;;;;;5.88;100.00;98131.53;6248185;22;19911;-89
2023/11/27 12:43:18;;;;;;;;;;;;;;;5.94;100.00;98115.47;6277228;22;19990;-86
2023/11/27 12:45:43;;;;;;;;;;;;;;;5.82;100.00;98122.19;6249810;22;19912;-85
2023/11/27 12:48:08;;;;;;;;;;;;;;;5.89;100.00;98106.09;6245576;22;19942;-89
2023/11/27 12:50:40;;;;;;;;;;;;;;;5.91;100.00;98104.25;6249539;22;19919;-89
2023/11/27 12:53:09;;;;;;;;;;;;;;;5.93;100.00;98099.78;6250183;22;19911;-87
2023/11/27 12:55:45;;;;;;;;;;;;;;;5.88;100.00;98092.13;6276505;22;20311;-87
2023/11/27 12:58:11;;;;;;;;;;;;;;;5.89;100.00;98088.56;6249907;22;19921;-88
2023/11/27 13:00:39;;;;;;;;;;;;;;;5.79;100.00;98075.03;6277065;22;20231;-87
2023/11/27 13:03:05;;;;;;;;;;;;;;;5.87;100.00;98082.53;6249727;22;19911;-90
2023/11/27 13:05:31;;;;;;;;;;;;;;;5.78;100.00;98073.31;6276933;22;19922;-86
2023/11/27 13:07:57;;;;;;;;;;;;;;;5.76;100.00;98063.81;6276661;22;19918;-90
2023/11/27 13:10:22;;;;;;;;;;;;;;;5.79;100.00;98063.66;6276292;22;20234;-88
2023/11/27 13:12:48;;;;;;;;;;;;;;;5.73;100.00;98053.47;6276879;22;19921;-93
2023/11/27 13:15:23;;;;;;;;;;;;;;;5.77;100.00;98057.63;6249824;22;19918;-94
2023/11/27 13:17:54;;;;;;;;;;;;;;;5.74;100.00;98044.66;6276762;22;19916;-88
2023/11/27 13:20:23;;;;;;;;;;;;;;;5.73;100.00;98038.56;6277212;22;19935;-89
2023/11/27 13:22:48;;;;;;;;;;;;;;;5.79;100.00;98030.34;6276558;22;20129;-87
2023/11/27 13:25:15;;;;;;;;;;;;;;;5.80;100.00;98033.81;6248256;22;20033;-87
2023/11/27 13:27:44;;;;;;;;;;;;;;;5.75;100.00;98020.91;6249410;22;19912;-87
2023/11/27 13:30:16;;;;;;;;;;;;;;;5.73;100.00;98016.69;6276463;22;19911;-86
2023/11/27 13:32:41;;;;;;;;;;;;;;;5.70;100.00;98011.59;6276760;22;19977;-89
2023/11/27 13:35:07;;;;;;;;;;;;;;;5.73;100.00;98003.56;6276668;22;19911;-80
2023/11/27 13:37:34;;;;;;;;;;;;;;;5.79;100.00;98000.56;6249509;22;19955;-82
2023/11/27 13:40:02;;;;;;;;;;;;;;;5.73;100.00;97998.28;6275023;22;20014;-86
2023/11/27 13:42:30;;;;;;;;;;;;;;;5.72;100.00;97993.97;6276637;22;20274;-86
2023/11/27 13:44:59;;;;;;;;;;;;;;;5.73;100.00;97990.41;6276426;22;19907;-88
2023/11/27 13:47:24;;;;;;;;;;;;;;;5.73;100.00;97985.16;6249693;22;19922;-87
2023/11/27 13:49:55;;;;;;;;;;;;;;;5.71;100.00;97976.47;6244701;22;20002;-87
2023/11/27 13:52:30;;;;;;;;;;;;;;;5.70;100.00;97972.16;6249611;22;19982;-87
2023/11/27 13:54:55;;;;;;;;;;;;;;;5.64;100.00;97971.53;6274744;22;19949;-81
2023/11/27 13:57:33;;;;;;;;;;;;;;;5.68;100.00;97974.00;6249098;22;19915;-86
2023/11/27 13:59:59;;;;;;;;;;;;;;;5.68;100.00;97966.13;6247523;22;19915;-82
2023/11/27 14:02:27;;;;;;;;;;;;;;;5.68;100.00;97966.13;6249437;22;19965;-85
2023/11/27 14:05:05;;;;;;;;;;;;;;;5.63;100.00;97961.97;6276448;22;19997;-88
2023/11/27 14:07:34;;;;;;;;;;;;;;;5.63;100.00;97956.72;6249357;22;19911;-85
2023/11/27 14:10:04;;;;;;;;;;;;;;;5.60;100.00;97949.00;6247462;22;19915;-86
2023/11/27 14:12:43;;;;;;;;;;;;;;;5.58;100.00;97950.81;6276294;22;19957;-88
2023/11/27 14:15:21;;;;;;;;;;;;;;;5.61;100.00;97948.03;6249081;22;20641;-87
2023/11/27 14:17:57;;;;;;;;;;;;;;;5.59;100.00;97936.78;6249714;22;19915;-87
2023/11/27 14:23:24;;;;;;;;;;;;;;;5.65;100.00;97927.72;6276289;22;19922;-84
2023/11/27 14:26:20;;;;;;;;;;;;;;;5.62;100.00;97923.47;6274745;22;19922;-87
2023/11/27 14:31:19;;;;;;;;;;;;;;;5.59;100.00;97905.25;6286020;22;19918;-86
2023/11/27 14:33:46;;;;;;;;;;;;;;;5.56;100.00;97908.03;6276648;22;19918;-88
2023/11/27 14:36:12;;;;;;;;;;;;;;;5.53;100.00;97896.84;6248947;22;19907;-91
2023/11/27 14:38:37;;;;;;;;;;;;;;;5.59;100.00;97897.38;6276228;22;19916;-89
2023/11/27 14:41:04;;;;;;;;;;;;;;;5.59;100.00;97899.16;6274108;22;19908;-87
2023/11/27 14:43:31;;;;;;;;;;;;;;;5.57;100.00;97890.50;6275638;22;19918;-87
2023/11/27 14:45:57;;;;;;;;;;;;;;;5.53;100.00;97878.44;6248997;22;20216;-89
2023/11/27 14:48:30;;;;;;;;;;;;;;;5.52;100.00;97882.88;6249033;22;19933;-90
2023/11/27 14:50:56;;;;;;;;;;;;;;;5.55;100.00;97866.94;6248112;22;19950;-91
2023/11/27 14:53:22;;;;;;;;;;;;;;;5.48;100.00;97864.72;6276371;22;20220;-84
2023/11/27 14:55:47;;;;;;;;;;;;;;;5.49;100.00;97858.50;6276115;22;19911;-88
2023/11/27 14:58:16;;;;;;;;;;;;;;;5.53;100.00;97853.03;6276029;22;20305;-87
2023/11/27 15:00:43;;;;;;;;;;;;;;;5.51;100.00;97849.63;6249098;22;20323;-84
2023/11/27 15:03:18;;;;;;;;;;;;;;;5.49;100.00;97841.00;6275829;22;20339;-92
2023/11/27 15:05:44;;;;;;;;;;;;;;;5.55;100.00;97835.41;6249012;22;19912;-86
2023/11/27 15:08:09;;;;;;;;;;;;;;;5.54;100.00;97828.44;6275779;22;19922;-81
2023/11/27 15:10:35;;;;;;;;;;;;;;;5.53;100.00;97826.75;6247259;22;19977;-84
2023/11/27 15:13:00;;;;;;;;;;;;;;;5.53;100.00;97823.28;6248516;22;19915;-89
2023/11/27 15:15:26;;;;;;;;;;;;;;;5.51;100.00;97818.09;6276138;22;20342;-86
2023/11/27 15:17:52;;;;;;;;;;;;;;;5.48;100.00;97809.56;6248700;22;20336;-87
2023/11/27 15:20:22;;;;;;;;;;;;;;;5.52;100.00;97811.94;6276107;22;20290;-84
2023/11/27 15:22:47;;;;;;;;;;;;;;;5.49;100.00;97814.72;6275785;22;19918;-90
2023/11/27 15:25:33;;;;;;;;;;;;;;;5.48;100.00;97799.88;6247620;22;19916;-93
2023/11/27 15:27:59;;;;;;;;;;;;;;;5.46;100.00;97793.88;6275100;22;19911;-92
2023/11/27 15:30:24;;;;;;;;;;;;;;;5.44;100.00;97791.31;6248988;22;19915;-91
2023/11/27 15:32:50;;;;;;;;;;;;;;;5.46;100.00;97793.88;6248350;22;20315;-87
2023/11/27 15:35:16;;;;;;;;;;;;;;;5.41;100.00;97780.13;6248502;22;19915;-90
2023/11/27 15:37:45;;;;;;;;;;;;;;;5.40;100.00;97783.69;6248610;22;20335;-87
2023/11/27 15:40:14;;;;;;;;;;;;;;;5.38;100.00;97778.53;6274284;22;19968;-84
2023/11/27 15:42:40;;;;;;;;;;;;;;;5.37;100.00;97763.69;6275848;22;19915;-89
2023/11/27 15:45:06;;;;;;;;;;;;;;;5.39;100.00;97768.84;6277284;22;19994;-85
2023/11/27 15:47:31;;;;;;;;;;;;;;;5.41;100.00;97764.38;6278865;22;20281;-90
2023/11/27 15:49:57;;;;;;;;;;;;;;;5.37;100.00;97749.72;6251114;22;19918;-87
2023/11/27 15:52:24;;;;;;;;;;;;;;;5.38;100.00;97744.38;6251190;22;19921;-83
2023/11/27 15:54:50;;;;;;;;;;;;;;;5.38;100.00;97754.88;6276063;22;19915;-87
2023/11/27 15:57:15;;;;;;;;;;;;;;;5.34;100.00;97747.25;6249700;22;19985;-84
2023/11/27 15:59:43;;;;;;;;;;;;;;;5.33;100.00;97748.16;6246222;22;20224;-87
2023/11/27 16:02:10;;;;;;;;;;;;;;;5.33;100.00;97751.66;6277558;22;20243;-83
2023/11/27 16:04:35;;;;;;;;;;;;;;;6.08;100.00;97735.28;6277155;22;20414;-84
2023/11/27 16:07:01;;;;;;;;;;;;;;;5.75;100.00;97731.00;6277651;22;19962;-89
2023/11/27 16:09:26;;;;;;;;;;;;;;;5.55;100.00;97725.06;6249957;22;19911;-89
2023/11/27 16:11:51;;;;;;;;;;;;;;;5.48;100.00;97728.97;6277378;22;20341;-87
2023/11/27 16:14:17;;;;;;;;;;;;;;;5.41;100.00;97722.34;6250641;22;19965;-89
2023/11/27 16:16:44;;;;;;;;;;;;;;;5.40;100.00;97718.88;6277516;22;20006;-89
2023/11/27 16:19:14;;;;;;;;;;;;;;;5.35;100.00;97706.94;6250274;22;19953;-88
2023/11/27 16:21:39;;;;;;;;;;;;;;;5.34;100.00;97706.06;6278151;22;20341;-87
2023/11/27 16:24:08;;;;;;;;;;;;;;;5.31;100.00;97700.97;6249162;22;19950;-87
2023/11/27 16:26:34;;;;;;;;;;;;;;;5.31;100.00;97695.72;6277854;22;19919;-90
2023/11/27 16:28:59;;;;;;;;;;;;;;;5.28;100.00;97685.38;6251498;22;19911;-90
2023/11/27 16:31:24;;;;;;;;;;;;;;;5.32;100.00;97681.69;6277070;22;20315;-89
2023/11/27 16:33:50;;;;;;;;;;;;;;;5.30;100.00;97682.69;6249992;22;19969;-89
2023/11/27 16:36:18;;;;;;;;;;;;;;;5.31;100.00;97673.88;6276794;22;19915;-87
2023/11/27 16:38:44;;;;;;;;;;;;;;;5.28;100.00;97667.88;6249454;22;19915;-90
2023/11/27 16:41:18;;;;;;;;;;;;;;;5.30;100.00;97675.66;6248427;22;19918;-87
2023/11/27 16:43:45;;;;;;;;;;;;;;;5.30;100.00;97680.06;6250869;22;19911;-84
2023/11/27 16:46:12;;;;;;;;;;;;;;;5.27;100.00;97657.44;6277447;22;20270;-90
2023/11/27 16:48:37;;;;;;;;;;;;;;;5.26;100.00;97659.25;6250463;22;20559;-89
2023/11/27 16:51:03;;;;;;;;;;;;;;;5.26;100.00;97659.25;6277140;22;19942;-85
2023/11/27 16:53:28;;;;;;;;;;;;;;;5.24;100.00;97657.63;6249989;22;19946;-87
2023/11/27 16:55:54;;;;;;;;;;;;;;;5.20;100.00;97656.94;6248787;22;19911;-89
2023/11/27 16:58:19;;;;;;;;;;;;;;;5.22;100.00;97649.81;6249862;22;20352;-84
2023/11/27 17:00:46;;;;;;;;;;;;;;;5.22;100.00;97652.44;6250271;22;19998;-91
2023/11/27 17:03:14;;;;;;;;;;;;;;;5.21;100.00;97650.75;6250189;22;19964;-89
2023/11/27 17:05:40;;;;;;;;;;;;;;;5.21;100.00;97650.75;6250086;22;20290;-85
2023/11/27 17:08:11;;;;;;;;;;;;;;;5.21;100.00;97645.50;6249875;22;19912;-89
2023/11/27 17:10:39;;;;;;;;;;;;;;;5.17;100.00;97636.09;6248192;22;19918;-87
2023/11/27 17:13:05;;;;;;;;;;;;;;;5.22;100.00;97634.06;6276740;22;20036;-85
2023/11/27 17:15:30;;;;;;;;;;;;;;;5.17;100.00;97636.09;6276715;22;19946;-88
2023/11/27 17:17:56;;;;;;;;;;;;;;;5.17;100.00;97632.63;6277184;22;19943;-84
2023/11/27 17:20:22;;;;;;;;;;;;;;;5.18;100.00;97622.03;6277017;22;19918;-85
2023/11/27 17:22:48;;;;;;;;;;;;;;;5.15;100.00;97621.34;6277094;22;19934;-89
2023/11/27 17:25:14;;;;;;;;;;;;;;;5.18;100.00;97618.56;6275029;22;19954;-89
2023/11/27 17:27:40;;;;;;;;;;;;;;;5.20;100.00;97620.19;6276826;22;20303;-87
2023/11/27 17:30:06;;;;;;;;;;;;;;;5.20;100.00;97607.06;6277134;22;19911;-85
2023/11/27 17:32:31;;;;;;;;;;;;;;;5.19;100.00;97612.41;6276582;22;19990;-84
2023/11/27 17:35:01;;;;;;;;;;;;;;;5.21;100.00;97600.03;6277374;22;19911;-92
2023/11/27 17:37:34;;;;;;;;;;;;;;;5.18;100.00;97598.41;6277054;22;19994;-89
2023/11/27 17:40:04;;;;;;;;;;;;;;;5.19;100.00;97597.47;6275792;22;19966;-86
2023/11/27 17:42:29;;;;;;;;;;;;;;;5.17;100.00;97596.72;6249720;22;19998;-89
2023/11/27 17:44:55;;;;;;;;;;;;;;;5.15;100.00;97600.34;6249715;22;19947;-86
2023/11/27 17:47:20;;;;;;;;;;;;;;;5.17;100.00;97596.72;6276883;22;20022;-87
2023/11/27 17:49:46;;;;;;;;;;;;;;;5.16;100.00;97592.41;6249789;22;19911;-89
2023/11/27 17:52:11;;;;;;;;;;;;;;;5.15;100.00;97595.94;6276951;22;19976;-86
2023/11/27 17:54:38;;;;;;;;;;;;;;;5.15;100.00;97589.84;6275003;22;19957;-85
2023/11/27 17:57:03;;;;;;;;;;;;;;;5.17;100.00;97587.97;6276300;22;19919;-85
2023/11/27 17:59:31;;;;;;;;;;;;;;;5.15;100.00;97579.34;6249541;22;19938;-92
2023/11/27 18:01:56;;;;;;;;;;;;;;;5.13;100.00;97578.59;6276459;22;19912;-85
2023/11/27 18:04:23;;;;;;;;;;;;;;;5.16;100.00;97579.28;6249602;22;19969;-87
2023/11/27 18:06:48;;;;;;;;;;;;;;;5.12;100.00;97579.53;6276043;22;19918;-87
2023/11/27 18:09:17;;;;;;;;;;;;;;;5.14;100.00;97562.78;6247504;22;20307;-91
2023/11/27 18:11:42;;;;;;;;;;;;;;;5.15;100.00;97563.59;6249606;22;19911;-89
2023/11/27 18:14:10;;;;;;;;;;;;;;;5.12;100.00;97564.59;6276513;22;19915;-86
2023/11/27 18:16:36;;;;;;;;;;;;;;;5.16;100.00;97560.91;6276519;22;20270;-92
2023/11/27 18:19:03;;;;;;;;;;;;;;;5.15;100.00;97548.69;6276721;22;19911;-85
2023/11/27 18:21:39;;;;;;;;;;;;;;;;;;;;;
2023/11/27 18:24:05;;;;;;;;;;;;;;;5.13;100.00;97536.59;6274782;22;20029;-92
2023/11/27 18:26:31;;;;;;;;;;;;;;;5.11;100.00;97536.69;6275987;22;19918;-89
2023/11/27 18:28:57;;;;;;;;;;;;;;;5.16;100.00;97533.81;6249521;22;19915;-90
2023/11/27 18:31:22;;;;;;;;;;;;;;;5.12;100.00;97533.09;6276044;22;19911;-91
2023/11/27 18:33:47;;;;;;;;;;;;;;;5.13;100.00;97523.47;6276155;22;19922;-85
2023/11/27 18:36:12;;;;;;;;;;;;;;;5.15;100.00;97517.19;6276587;22;19943;-87
2023/11/27 18:38:41;;;;;;;;;;;;;;;5.11;100.00;97515.69;6276086;22;19919;-91
2023/11/27 18:41:06;;;;;;;;;;;;;;;5.13;100.00;97513.81;6247495;22;19916;-90
2023/11/27 18:43:32;;;;;;;;;;;;;;;5.09;100.00;97517.56;6249206;22;19980;-89
2023/11/27 18:45:57;;;;;;;;;;;;;;;5.12;100.00;97521.78;6249076;22;19911;-92
2023/11/27 18:48:23;;;;;;;;;;;;;;;5.15;100.00;97516.34;6276117;22;20049;-92
2023/11/27 18:50:48;;;;;;;;;;;;;;;5.09;100.00;97512.31;6275988;22;19926;-86
2023/11/27 18:53:16;;;;;;;;;;;;;;;5.08;100.00;97515.84;6276124;22;19911;-87
2023/11/27 18:55:42;;;;;;;;;;;;;;;5.09;100.00;97513.16;6247158;22;19953;-87
2023/11/27 18:58:08;;;;;;;;;;;;;;;5.05;100.00;97511.63;6275788;22;19919;-86
2023/11/27 19:00:33;;;;;;;;;;;;;;;5.13;100.00;97518.22;6276045;22;19911;-90
2023/11/27 19:02:58;;;;;;;;;;;;;;;5.13;100.00;97508.56;6275953;22;19928;-90
2023/11/27 19:05:24;;;;;;;;;;;;;;;5.15;100.00;97498.81;6275861;22;19934;-89
2023/11/27 19:07:51;;;;;;;;;;;;;;;5.11;100.00;97499.94;6276396;22;19918;-90
2023/11/27 19:10:18;;;;;;;;;;;;;;;5.09;100.00;97507.06;6274031;22;20375;-90
2023/11/27 19:12:43;;;;;;;;;;;;;;;5.06;100.00;97496.72;6249109;22;19918;-88
2023/11/27 19:15:09;;;;;;;;;;;;;;;5.09;100.00;97491.31;6248848;22;20048;-87
2023/11/27 19:17:34;;;;;;;;;;;;;;;5.11;100.00;97497.31;6275724;22;19982;-89
2023/11/27 19:19:59;;;;;;;;;;;;;;;5.11;100.00;97491.22;6275931;22;19918;-92
2023/11/27 19:22:27;;;;;;;;;;;;;;;5.05;100.00;97481.91;6275816;22;19942;-88
2023/11/27 19:24:53;;;;;;;;;;;;;;;5.08;100.00;97474.69;6274066;22;19915;-88
2023/11/27 19:27:19;;;;;;;;;;;;;;;5.09;100.00;97472.94;6249069;22;19923;-89
2023/11/27 19:29:44;;;;;;;;;;;;;;;5.07;100.00;97473.03;6276184;22;19911;-84
2023/11/27 19:32:09;;;;;;;;;;;;;;;5.08;100.00;97473.84;6275876;22;19919;-92
2023/11/27 19:34:36;;;;;;;;;;;;;;;5.11;100.00;97462.34;6275780;22;19922;-90
2023/11/27 19:37:04;;;;;;;;;;;;;;;5.06;100.00;97460.81;6275810;22;19912;-91
2023/11/27 19:39:30;;;;;;;;;;;;;;;5.09;100.00;97454.56;6273960;22;19954;-90
2023/11/27 19:41:55;;;;;;;;;;;;;;;5.09;100.00;97457.19;6275601;22;19911;-91
2023/11/27 19:44:22;;;;;;;;;;;;;;;5.08;100.00;97448.44;6248519;22;19911;-87
2023/11/27 19:46:47;;;;;;;;;;;;;;;5.07;100.00;97445.91;6248521;22;19919;-85
2023/11/27 19:49:12;;;;;;;;;;;;;;;5.07;100.00;97457.28;6248526;22;19912;-87
2023/11/27 19:51:38;;;;;;;;;;;;;;;5.05;100.00;97442.53;6249066;22;19915;-86
2023/11/27 19:54:03;;;;;;;;;;;;;;;5.05;100.00;97446.00;6273876;22;19916;-90
2023/11/27 19:56:29;;;;;;;;;;;;;;;5.05;100.00;97443.38;6275530;22;19922;-88
2023/11/27 19:58:54;;;;;;;;;;;;;;;5.07;100.00;97445.91;6248734;22;19931;-87
2023/11/27 20:01:20;;;;;;;;;;;;;;;5.06;100.00;97434.56;6275519;22;19911;-87
2023/11/27 20:03:45;;;;;;;;;;;;;;;5.06;100.00;97434.56;6248351;22;19911;-86
2023/11/27 20:06:10;;;;;;;;;;;;;;;5.09;100.00;97429.16;6275947;22;19915;-88
2023/11/27 20:08:36;;;;;;;;;;;;;;;5.08;100.00;97422.19;6275329;22;19915;-89
2023/11/27 20:11:01;;;;;;;;;;;;;;;5.13;100.00;97421.09;6274312;22;19951;-89
2023/11/27 20:13:26;;;;;;;;;;;;;;;5.07;100.00;97414.41;6275425;22;19957;-87
2023/11/27 20:15:52;;;;;;;;;;;;;;;5.12;100.00;97412.34;6275547;22;20277;-88
2023/11/27 20:18:17;;;;;;;;;;;;;;;5.06;100.00;97407.47;6248536;22;19915;-87
2023/11/27 20:20:43;;;;;;;;;;;;;;;5.11;100.00;97409.84;6275368;22;20002;-91
2023/11/27 20:23:09;;;;;;;;;;;;;;;5.12;100.00;97401.00;6275506;22;19922;-89
2023/11/27 20:25:35;;;;;;;;;;;;;;;5.08;100.00;97400.34;6246645;22;19918;-92
2023/11/27 20:28:00;;;;;;;;;;;;;;;5.13;100.00;97397.47;6248364;22;19990;-87
2023/11/27 20:30:25;;;;;;;;;;;;;;;5.14;100.00;97405.25;6250350;22;19918;-86
2023/11/27 20:36:12;;;;;;;;;;;;;;;5.07;100.00;97401.28;6266503;22;19938;-87
2023/11/27 20:38:42;;;;;;;;;;;;;;;5.07;100.00;97396.03;6250232;22;19922;-91
2023/11/27 20:41:08;;;;;;;;;;;;;;;5.06;100.00;97396.97;6248516;22;20001;-89
2023/11/27 20:43:33;;;;;;;;;;;;;;;5.06;100.00;97389.09;6277211;22;19911;-88
2023/11/27 20:45:59;;;;;;;;;;;;;;;5.05;100.00;97397.91;6277451;22;20311;-89